Time;durP1;ratioP1;P1;durP2;ratioP2;P2;SDS_P1;SDS_P2;PMS_P1;PMS_P2;Temp;Humidity;BMP_temperature;BMP_pressure;BME280_temperature;BME280_humidity;BME280_pressure;Samples;Min_cycle;Max_cycle;Signal;HPM_P1;HPM_P2
2023/09/15 00:02:14;;;;;;;5.45;3.83;;;;;;;14.46;100.00;101006.16;8349086;28;20801;-64
2023/09/15 00:06:16;;;;;;;6.93;3.47;;;;;;;14.50;100.00;100995.81;8353969;28;20127;-64
2023/09/15 00:10:19;;;;;;;7.57;3.28;;;;;;;14.58;100.00;100994.00;8348764;28;20048;-61
2023/09/15 00:14:19;;;;;;;7.22;3.42;;;;;;;14.61;100.00;100993.69;8349984;28;20072;-60
2023/09/15 00:18:20;;;;;;;4.05;2.67;;;;;;;14.66;100.00;100991.38;8351598;28;20048;-60
2023/09/15 00:22:23;;;;;;;8.32;3.55;;;;;;;14.56;100.00;100990.59;8352616;28;20044;-61
2023/09/15 00:26:24;;;;;;;4.43;3.17;;;;;;;14.42;100.00;100998.44;8354096;28;20390;-60
2023/09/15 00:30:27;;;;;;;6.25;3.50;;;;;;;14.19;100.00;100991.69;8349919;28;20039;-60
2023/09/15 00:34:28;;;;;;;5.30;3.85;;;;;;;14.13;100.00;100998.59;8352754;28;20036;-59
2023/09/15 00:38:28;;;;;;;10.10;3.95;;;;;;;14.16;100.00;100995.56;8351366;28;20052;-60
2023/09/15 00:42:29;;;;;;;10.90;3.70;;;;;;;14.14;100.00;100992.13;8353669;28;20549;-60
2023/09/15 00:46:30;;;;;;;8.68;3.45;;;;;;;14.02;100.00;100985.19;8351152;28;20047;-60
2023/09/15 00:50:32;;;;;;;5.00;3.63;;;;;;;14.02;100.00;100985.19;8353224;28;20086;-60
2023/09/15 00:54:33;;;;;;;7.57;4.18;;;;;;;14.00;100.00;100986.34;8359336;28;20094;-60
2023/09/15 00:58:38;;;;;;;6.65;3.80;;;;;;;14.12;100.00;100982.44;8357060;28;20083;-65
2023/09/15 01:02:41;;;;;;;6.40;3.75;;;;;;;13.80;100.00;100980.16;8372903;28;20502;-65
2023/09/15 01:06:46;;;;;;;4.90;3.58;;;;;;;13.77;100.00;100975.88;8375169;28;20402;-66
2023/09/15 01:10:46;;;;;;;5.20;4.00;;;;;;;13.87;100.00;100970.38;8374671;28;20090;-63
2023/09/15 01:14:47;;;;;;;5.75;3.92;;;;;;;13.78;100.00;100964.00;8371402;28;20045;-64
2023/09/15 01:19:03;;;;;;;6.65;4.32;;;;;;;13.74;100.00;100964.44;8373522;28;20048;-56
2023/09/15 01:23:31;;;;;;;5.93;3.95;;;;;;;13.54;100.00;100958.22;8370856;28;20098;-57
2023/09/15 01:28:11;;;;;;;7.13;4.45;;;;;;;13.47;100.00;100956.25;8369143;28;20036;-58
2023/09/15 01:32:14;;;;;;;4.28;3.22;;;;;;;13.55;100.00;100953.66;8347266;28;20041;-58
2023/09/15 01:36:14;;;;;;;6.53;4.25;;;;;;;13.59;100.00;100960.50;8358184;28;20455;-58
2023/09/15 01:40:15;;;;;;;5.68;3.75;;;;;;;13.52;100.00;100948.53;8356089;28;20102;-57
2023/09/15 01:44:15;;;;;;;6.00;3.90;;;;;;;13.55;100.00;100954.50;8388658;28;20080;-57
2023/09/15 01:48:17;;;;;;;7.07;3.72;;;;;;;13.50;100.00;100961.38;8355749;28;20037;-57
2023/09/15 01:52:20;;;;;;;7.82;3.95;;;;;;;13.44;100.00;100946.56;8350988;28;20049;-58
2023/09/15 01:56:22;;;;;;;7.25;3.92;;;;;;;13.46;100.00;100954.56;8358275;28;20415;-56
2023/09/15 02:00:23;;;;;;;4.18;3.40;;;;;;;13.46;100.00;100949.13;8354860;28;20041;-59
2023/09/15 02:04:23;;;;;;;7.93;4.43;;;;;;;13.49;100.00;100949.69;8346929;28;20052;-58
2023/09/15 02:08:25;;;;;;;6.78;3.92;;;;;;;13.42;100.00;100945.00;8356358;28;20040;-65
2023/09/15 02:12:26;;;;;;;7.88;4.03;;;;;;;13.45;100.00;100950.13;8355007;28;20503;-65
2023/09/15 02:16:27;;;;;;;6.63;4.25;;;;;;;13.43;100.00;100949.41;8353552;28;20123;-64
2023/09/15 02:20:28;;;;;;;8.38;4.32;;;;;;;13.31;100.00;100945.16;8354562;28;20521;-63
2023/09/15 02:24:31;;;;;;;5.22;3.90;;;;;;;13.23;100.00;100936.88;8353589;28;20044;-63
2023/09/15 02:28:33;;;;;;;6.25;3.53;;;;;;;13.17;100.00;100937.47;8350413;28;20495;-63
2023/09/15 02:32:34;;;;;;;6.25;3.72;;;;;;;13.17;100.00;100937.47;8401905;28;20048;-62
2023/09/15 02:36:34;;;;;;;7.05;4.45;;;;;;;13.16;100.00;100936.63;8370902;28;20494;-62
2023/09/15 02:40:35;;;;;;;9.10;4.00;;;;;;;13.24;100.00;100928.59;8370814;28;20033;-61
2023/09/15 02:44:35;;;;;;;7.10;4.50;;;;;;;13.31;100.00;100929.75;8370213;28;20467;-59
2023/09/15 02:48:36;;;;;;;5.65;4.20;;;;;;;13.45;100.00;100931.13;8369903;28;20036;-59
2023/09/15 02:52:37;;;;;;;8.27;4.88;;;;;;;13.38;100.00;100927.25;8371069;28;20033;-60
2023/09/15 02:56:37;;;;;;;6.63;4.50;;;;;;;13.41;100.00;100929.69;8371821;28;20137;-59
2023/09/15 03:00:38;;;;;;;4.93;4.13;;;;;;;13.41;100.00;100918.81;8368884;28;20160;-61
2023/09/15 03:04:39;;;;;;;8.57;4.30;;;;;;;13.39;100.00;100918.97;8367850;28;20048;-61
2023/09/15 03:08:42;;;;;;;10.18;4.05;;;;;;;13.34;100.00;100924.00;8370779;28;20036;-61
2023/09/15 03:12:43;;;;;;;7.72;4.28;;;;;;;13.32;100.00;100919.72;8369589;28;20684;-57
2023/09/15 03:16:44;;;;;;;8.27;3.85;;;;;;;13.21;100.00;100915.31;8390238;28;20391;-57
2023/09/15 03:20:44;;;;;;;6.10;4.20;;;;;;;13.28;100.00;100904.72;8371002;28;20819;-57
2023/09/15 03:24:45;;;;;;;8.25;4.30;;;;;;;13.24;100.00;100908.75;8369534;28;20175;-58
2023/09/15 03:28:46;;;;;;;8.57;4.63;;;;;;;13.23;100.00;100904.31;8397229;28;20040;-58
2023/09/15 03:32:47;;;;;;;8.45;4.57;;;;;;;13.18;100.00;100902.03;8367814;28;20047;-57
2023/09/15 03:36:48;;;;;;;6.55;4.18;;;;;;;13.22;100.00;100889.03;8370583;28;20562;-56
2023/09/15 03:40:51;;;;;;;11.43;4.72;;;;;;;13.10;100.00;100903.78;8368411;28;20421;-57
2023/09/15 03:44:52;;;;;;;6.75;4.13;;;;;;;13.02;100.00;100898.25;8367666;28;20155;-58
2023/09/15 03:48:52;;;;;;;6.95;4.40;;;;;;;12.97;100.00;100903.22;8371321;28;20032;-59
2023/09/15 03:52:53;;;;;;;10.65;4.32;;;;;;;12.98;100.00;100907.63;8367840;28;20036;-58
2023/09/15 03:56:54;;;;;;;7.55;4.28;;;;;;;12.89;100.00;100900.38;8367610;28;20060;-58
2023/09/15 04:00:55;;;;;;;9.35;5.20;;;;;;;12.74;100.00;100894.56;8365711;28;20043;-59
2023/09/15 04:04:55;;;;;;;4.88;4.28;;;;;;;12.64;100.00;100900.97;8367268;28;20116;-60
2023/09/15 04:08:57;;;;;;;9.13;4.35;;;;;;;12.67;100.00;100900.69;8400404;28;20036;-61
2023/09/15 04:12:57;;;;;;;7.32;4.60;;;;;;;12.73;100.00;100902.84;8368398;28;20041;-59
2023/09/15 04:16:57;;;;;;;6.38;3.95;;;;;;;12.58;100.00;100906.97;8367058;28;20564;-59
2023/09/15 04:20:58;;;;;;;9.10;4.28;;;;;;;12.59;100.00;100911.44;8370962;28;20032;-65
2023/09/15 04:24:59;;;;;;;10.30;4.30;;;;;;;12.57;100.00;100902.56;8368439;28;20045;-65
2023/09/15 04:28:59;;;;;;;7.25;4.50;;;;;;;12.51;100.00;100905.84;8374194;28;20033;-65
2023/09/15 04:33:00;;;;;;;6.57;4.20;;;;;;;12.39;100.00;100907.00;8370502;28;20041;-65
2023/09/15 04:37:02;;;;;;;5.47;4.13;;;;;;;12.26;100.00;100891.00;8355073;28;20061;-65
2023/09/15 04:41:04;;;;;;;5.78;4.10;;;;;;;12.37;100.00;100900.84;8357695;28;20514;-65
2023/09/15 04:45:05;;;;;;;6.07;3.97;;;;;;;12.30;100.00;100891.59;8354203;28;20465;-62
2023/09/15 04:49:07;;;;;;;6.05;3.95;;;;;;;12.31;100.00;100888.72;8358308;28;20097;-65
2023/09/15 04:53:08;;;;;;;6.32;4.63;;;;;;;12.36;100.00;100891.00;8355549;28;20029;-65
2023/09/15 04:57:09;;;;;;;7.15;3.92;;;;;;;12.39;100.00;100890.72;8357481;28;20029;-65
2023/09/15 05:01:11;;;;;;;6.05;4.28;;;;;;;12.46;100.00;100902.69;8353584;28;20033;-64
2023/09/15 05:05:12;;;;;;;8.85;4.63;;;;;;;12.50;100.00;100898.72;8354017;28;20353;-64
2023/09/15 05:09:20;;;;;;;9.23;4.60;;;;;;;12.54;100.00;100906.44;8352792;28;20339;-59
2023/09/15 05:13:20;;;;;;;15.00;5.38;;;;;;;12.48;100.00;100911.56;8349128;28;20041;-60
2023/09/15 05:17:22;;;;;;;8.77;4.45;;;;;;;12.51;100.00;100905.84;8352669;28;20342;-61
2023/09/15 05:21:23;;;;;;;9.55;4.53;;;;;;;12.56;100.00;100909.00;8351202;28;20056;-60
2023/09/15 05:25:24;;;;;;;6.88;4.50;;;;;;;12.55;100.00;100912.69;8354177;28;20578;-60
2023/09/15 05:29:25;;;;;;;9.38;4.55;;;;;;;12.70;100.00;100913.97;8357080;28;20071;-59
2023/09/15 05:33:26;;;;;;;10.07;4.97;;;;;;;12.74;100.00;100918.09;8352139;28;20067;-59
2023/09/15 05:37:27;;;;;;;14.35;4.43;;;;;;;12.78;100.00;100920.38;8352811;28;20048;-60
2023/09/15 05:41:27;;;;;;;6.72;4.38;;;;;;;12.87;100.00;100919.50;8358494;28;20037;-58
2023/09/15 05:45:28;;;;;;;7.28;4.32;;;;;;;12.94;100.00;100925.22;8357129;28;20055;-63
2023/09/15 05:49:28;;;;;;;10.70;4.68;;;;;;;13.00;100.00;100916.53;8379247;28;20067;-63
2023/09/15 05:53:30;;;;;;;12.80;4.80;;;;;;;13.08;100.00;100917.50;8355852;28;20087;-63
2023/09/15 05:57:31;;;;;;;9.07;4.50;;;;;;;13.02;100.00;100918.09;8354511;28;20474;-63
2023/09/15 06:01:31;;;;;;;7.53;4.18;;;;;;;13.10;100.00;100914.63;8350049;28;20067;-62
2023/09/15 06:05:31;;;;;;;10.02;4.50;;;;;;;13.10;100.00;100903.78;8351403;28;20041;-63
2023/09/15 06:09:32;;;;;;;6.75;4.53;;;;;;;13.20;100.00;100905.47;8355403;28;20056;-63
2023/09/15 06:13:33;;;;;;;10.18;4.93;;;;;;;13.49;100.00;100908.06;8355312;28;20522;-62
2023/09/15 06:17:34;;;;;;;6.22;4.35;;;;;;;13.72;100.00;100917.53;8369871;28;20032;-62
2023/09/15 06:21:35;;;;;;;9.45;4.38;;;;;;;13.88;100.00;100914.16;8372399;28;20044;-59
2023/09/15 06:25:35;;;;;;;9.13;4.45;;;;;;;14.05;100.00;100906.03;8372493;28;20473;-59
2023/09/15 06:29:36;;;;;;;7.05;4.50;;;;;;;14.34;100.00;100903.16;8370350;28;20033;-62
2023/09/15 06:33:36;;;;;;;13.40;5.72;;;;;;;14.26;100.00;100894.91;8370461;28;20119;-62
2023/09/15 06:37:37;;;;;;;7.47;4.30;;;;;;;14.53;100.00;100892.97;8371624;28;20060;-62
2023/09/15 06:41:37;;;;;;;9.85;4.63;;;;;;;14.53;100.00;100903.84;8371519;28;20041;-59
2023/09/15 06:45:38;;;;;;;6.85;4.30;;;;;;;14.77;100.00;100901.34;8367154;28;20063;-59
2023/09/15 06:49:38;;;;;;;10.68;4.22;;;;;;;14.97;100.00;100902.84;8368897;28;20101;-59
2023/09/15 06:53:39;;;;;;;13.95;4.32;;;;;;;15.19;100.00;100907.75;8369655;28;20086;-62
2023/09/15 06:57:39;;;;;;;6.28;4.25;;;;;;;15.58;100.00;100906.31;8373428;28;20573;-62
2023/09/15 07:01:40;;;;;;;9.05;3.97;;;;;;;15.60;100.00;100901.56;8367956;28;20043;-63
2023/09/15 07:05:41;;;;;;;8.00;3.35;;;;;;;15.91;99.76;100887.34;8365920;28;20138;-63
2023/09/15 07:09:42;;;;;;;5.65;3.58;;;;;;;15.81;98.35;100892.06;8369772;28;20052;-63
2023/09/15 07:13:42;;;;;;;6.93;3.85;;;;;;;16.04;97.01;100887.72;8368568;28;20120;-63
2023/09/15 07:17:43;;;;;;;8.13;3.00;;;;;;;16.30;95.97;100883.00;8369664;28;20045;-66
2023/09/15 07:21:44;;;;;;;7.38;3.20;;;;;;;16.36;96.48;100882.31;8370436;28;20384;-64
2023/09/15 07:25:45;;;;;;;5.88;3.08;;;;;;;16.56;94.68;100876.41;8370785;28;20064;-66
2023/09/15 07:29:46;;;;;;;8.63;3.33;;;;;;;16.73;93.24;100882.72;8369336;28;20051;-66
2023/09/15 07:33:47;;;;;;;6.63;3.40;;;;;;;16.68;93.65;100874.19;8368362;28;20051;-59
2023/09/15 07:37:48;;;;;;;6.40;2.85;;;;;;;16.94;91.87;100869.38;8370190;28;20399;-59
2023/09/15 07:41:49;;;;;;;5.88;3.13;;;;;;;17.12;92.18;100875.50;8371816;28;20064;-59
2023/09/15 07:45:50;;;;;;;4.60;2.85;;;;;;;17.28;92.04;100865.41;8367062;28;20083;-59
2023/09/15 07:49:51;;;;;;;7.68;3.05;;;;;;;17.68;90.29;100861.69;8371907;28;20025;-58
2023/09/15 07:53:52;;;;;;;4.50;2.67;;;;;;;18.00;89.36;100861.53;8369437;28;20117;-60
2023/09/15 07:57:53;;;;;;;5.75;2.95;;;;;;;18.21;89.11;100858.97;8369228;28;20032;-59
2023/09/15 08:01:53;;;;;;;5.55;2.88;;;;;;;18.24;87.19;100857.78;8372857;28;20048;-64
2023/09/15 08:05:54;;;;;;;7.78;2.45;;;;;;;18.08;87.85;100869.66;8375263;28;20064;-65
2023/09/15 08:09:56;;;;;;;9.38;3.08;;;;;;;18.27;87.87;100863.72;8375908;28;20040;-65
2023/09/15 08:13:56;;;;;;;7.68;3.50;;;;;;;18.50;87.48;100858.28;8375299;28;20111;-63
2023/09/15 08:17:57;;;;;;;5.63;2.95;;;;;;;18.64;84.40;100855.63;8373581;28;20517;-65
2023/09/15 08:22:00;;;;;;;9.60;3.05;;;;;;;18.79;87.15;100851.00;8376777;28;20437;-65
2023/09/15 08:26:01;;;;;;;5.22;2.50;;;;;;;19.24;88.82;100844.56;8375310;28;20041;-65
2023/09/15 08:30:01;;;;;;;7.55;2.53;;;;;;;19.60;84.08;100845.53;8374643;28;20037;-65
2023/09/15 08:34:02;;;;;;;10.50;2.70;;;;;;;19.77;82.57;100848.91;8375314;28;20032;-65
2023/09/15 08:38:04;;;;;;;4.28;2.45;;;;;;;19.41;82.10;100855.22;8372927;28;20036;-64
2023/09/15 08:42:11;;;;;;;3.97;2.40;;;;;;;19.77;81.92;100855.25;8388991;28;20037;-63
2023/09/15 08:46:14;;;;;;;6.68;2.28;;;;;;;20.19;79.59;100849.03;8354275;28;20037;-66
2023/09/15 08:50:16;;;;;;;7.95;2.85;;;;;;;19.96;80.22;100848.31;8357514;28;20502;-65
2023/09/15 08:54:17;;;;;;;7.65;2.45;;;;;;;19.96;79.16;100849.16;8355239;28;20132;-65
2023/09/15 08:58:18;;;;;;;7.13;2.17;;;;;;;20.09;79.74;100853.94;8358230;28;20041;-65
2023/09/15 09:02:18;;;;;;;4.75;2.45;;;;;;;20.21;79.43;100846.94;8353691;28;20411;-63
2023/09/15 09:06:21;;;;;;;5.18;2.38;;;;;;;20.48;77.90;100838.78;8353612;28;20052;-63
2023/09/15 09:10:24;;;;;;;4.28;2.17;;;;;;;20.71;75.82;100844.91;8355451;28;20067;-63
2023/09/15 09:14:25;;;;;;;6.68;2.10;;;;;;;20.90;76.40;100844.25;8356236;28;20037;-63
2023/09/15 09:18:26;;;;;;;4.68;2.35;;;;;;;20.97;76.04;100849.81;8354661;28;20064;-63
2023/09/15 09:22:26;;;;;;;4.88;1.90;;;;;;;21.86;73.13;100846.16;8356201;28;20121;-64
2023/09/15 09:26:27;;;;;;;5.00;1.75;;;;;;;23.50;67.37;100837.00;8356444;28;20395;-63
2023/09/15 09:30:29;;;;;;;5.03;1.88;;;;;;;24.76;63.59;100846.16;8354009;28;20041;-65
2023/09/15 09:34:29;;;;;;;8.43;1.95;;;;;;;25.97;61.04;100839.84;8354051;28;20032;-65
2023/09/15 09:38:30;;;;;;;3.30;1.95;;;;;;;26.55;58.05;100827.94;8355891;28;20071;-63
2023/09/15 09:42:34;;;;;;;4.82;1.83;;;;;;;26.71;58.02;100829.19;8355402;28;20044;-63
2023/09/15 09:46:36;;;;;;;3.40;1.73;;;;;;;27.27;58.11;100820.38;8353502;28;20374;-62
2023/09/15 09:50:36;;;;;;;3.17;1.55;;;;;;;27.69;57.08;100825.50;8350118;28;20067;-62
2023/09/15 09:54:36;;;;;;;3.42;1.55;;;;;;;27.78;55.06;100820.44;8355350;28;20037;-63
2023/09/15 09:58:38;;;;;;;6.13;1.17;;;;;;;28.71;52.93;100823.69;8355327;28;20047;-63
2023/09/15 10:02:40;;;;;;;3.25;1.50;;;;;;;28.71;53.28;100819.00;8352699;28;20106;-60
2023/09/15 10:06:41;;;;;;;3.55;1.55;;;;;;;28.60;53.00;100806.81;8346251;28;20041;-58
2023/09/15 10:10:44;;;;;;;4.13;1.25;;;;;;;28.47;52.84;100817.44;8354703;28;20090;-59
2023/09/15 10:14:44;;;;;;;5.38;1.58;;;;;;;28.96;52.60;100799.91;8351670;28;20143;-59
2023/09/15 10:18:46;;;;;;;6.25;1.40;;;;;;;29.26;52.40;100794.00;8351818;28;20526;-60
2023/09/15 10:22:47;;;;;;;4.47;1.60;;;;;;;28.87;51.43;100784.75;8353840;28;20067;-64
2023/09/15 10:26:47;;;;;;;4.18;1.30;;;;;;;29.38;51.23;100780.81;8350789;28;20036;-64
2023/09/15 10:30:54;;;;;;;2.67;1.40;;;;;;;29.98;50.87;100776.91;8352550;28;20039;-65
2023/09/15 10:34:55;;;;;;;5.05;1.55;;;;;;;30.21;50.29;100775.78;8383824;28;20087;-64
2023/09/15 10:38:57;;;;;;;3.42;1.35;;;;;;;30.47;48.73;100768.53;8355108;28;20110;-64
2023/09/15 10:43:07;;;;;;;5.63;1.63;;;;;;;29.78;50.63;100770.25;8352934;28;20045;-65
2023/09/15 10:47:16;;;;;;;5.70;1.48;;;;;;;29.93;49.21;100768.50;8349790;28;20036;-65
2023/09/15 10:51:18;;;;;;;2.97;1.27;;;;;;;30.37;49.10;100772.91;8349804;28;20083;-65
2023/09/15 10:55:19;;;;;;;4.22;1.35;;;;;;;30.99;48.29;100767.63;8348595;28;20070;-65
2023/09/15 10:59:20;;;;;;;3.25;1.23;;;;;;;31.65;45.66;100760.50;8355221;28;20043;-64
2023/09/15 11:03:24;;;;;;;6.47;1.30;;;;;;;31.37;45.88;100746.91;8353805;28;20087;-62
2023/09/15 11:07:25;;;;;;;2.38;1.10;;;;;;;30.44;45.34;100753.97;8354423;28;20443;-65
2023/09/15 11:11:25;;;;;;;2.40;0.95;;;;;;;30.86;46.50;100753.28;8352518;28;20064;-65
2023/09/15 11:15:26;;;;;;;4.20;1.58;;;;;;;31.84;45.17;100747.75;8351042;28;20467;-64
2023/09/15 11:19:30;;;;;;;2.50;1.08;;;;;;;31.26;45.96;100734.00;8354198;28;20090;-64
2023/09/15 11:23:30;;;;;;;1.60;1.00;;;;;;;31.62;44.93;100735.88;8353328;28;20049;-64
2023/09/15 11:27:33;;;;;;;2.67;1.15;;;;;;;31.48;46.25;100726.31;8360768;28;20783;-64
2023/09/15 11:31:36;;;;;;;3.08;1.20;;;;;;;31.72;44.62;100722.78;8365816;28;20044;-61
2023/09/15 11:35:37;;;;;;;2.83;1.30;;;;;;;32.13;45.23;100716.19;8341356;28;20032;-60
2023/09/15 11:39:37;;;;;;;2.72;1.23;;;;;;;31.63;45.68;100717.97;8382608;28;20108;-60
2023/09/15 11:43:39;;;;;;;1.52;1.20;;;;;;;32.45;44.17;100709.53;8352200;28;20131;-60
2023/09/15 11:47:45;;;;;;;6.15;1.25;;;;;;;32.45;43.78;100704.78;8345186;28;20121;-60
2023/09/15 11:51:46;;;;;;;2.38;1.13;;;;;;;32.82;42.56;100710.94;8352310;28;20044;-60
2023/09/15 11:55:51;;;;;;;3.08;0.98;;;;;;;32.81;43.05;100708.41;8351234;28;20525;-60
2023/09/15 11:59:52;;;;;;;2.40;1.00;;;;;;;32.29;45.15;100707.84;8350324;28;20073;-59
2023/09/15 12:03:53;;;;;;;2.30;1.00;;;;;;;31.79;44.91;100705.72;8348969;28;20048;-60
2023/09/15 12:07:53;;;;;;;2.53;0.95;;;;;;;31.95;44.10;100693.47;8349427;28;20496;-60
2023/09/15 12:11:54;;;;;;;1.40;0.93;;;;;;;32.45;42.80;100693.59;8349269;28;20044;-60
2023/09/15 12:15:58;;;;;;;2.53;0.90;;;;;;;32.22;42.60;100694.09;8350963;28;20495;-61
2023/09/15 12:20:00;;;;;;;3.17;1.00;;;;;;;31.66;43.25;100684.72;8351775;28;20090;-59
2023/09/15 12:24:09;;;;;;;3.58;1.23;;;;;;;32.97;43.17;100685.72;8349798;28;20041;-59
2023/09/15 12:28:11;;;;;;;2.05;0.88;;;;;;;33.12;41.86;100677.28;8344033;28;20123;-60
2023/09/15 12:32:11;;;;;;;5.38;1.30;;;;;;;31.42;43.09;100677.94;8342761;28;20040;-60
2023/09/15 12:36:13;;;;;;;2.08;0.98;;;;;;;30.23;45.59;100664.78;8350151;28;20090;-60
2023/09/15 12:40:15;;;;;;;2.78;1.00;;;;;;;28.27;48.01;100656.53;8343714;28;20086;-61
2023/09/15 12:44:17;;;;;;;3.65;1.10;;;;;;;27.32;50.66;100637.19;8347940;28;20061;-65
2023/09/15 12:48:17;;;;;;;2.45;0.90;;;;;;;26.47;51.97;100636.91;8352281;28;20047;-65
2023/09/15 12:52:18;;;;;;;3.45;1.23;;;;;;;26.24;51.86;100642.44;8354214;28;20037;-60
2023/09/15 12:56:18;;;;;;;2.75;1.20;;;;;;;25.94;53.60;100635.22;8355843;28;20121;-59
2023/09/15 13:00:19;;;;;;;4.75;1.27;;;;;;;25.62;53.87;100631.91;8352705;28;20049;-59
2023/09/15 13:04:20;;;;;;;2.83;1.00;;;;;;;25.64;53.44;100624.19;8350318;28;20135;-60
2023/09/15 13:08:21;;;;;;;3.63;1.30;;;;;;;25.69;54.12;100618.81;8366303;28;20041;-60
2023/09/15 13:12:22;;;;;;;2.97;1.10;;;;;;;25.58;54.78;100619.59;8370787;28;20438;-59
2023/09/15 13:16:23;;;;;;;2.60;1.30;;;;;;;25.41;55.28;100607.50;8369998;28;20033;-58
2023/09/15 13:20:23;;;;;;;1.70;1.15;;;;;;;25.22;56.09;100602.22;8366210;28;20075;-61
2023/09/15 13:24:24;;;;;;;2.28;1.05;;;;;;;25.36;56.34;100596.28;8370242;28;20045;-60
2023/09/15 13:28:25;;;;;;;5.45;1.08;;;;;;;25.73;54.80;100584.00;8369423;28;20113;-60
2023/09/15 13:32:26;;;;;;;2.92;0.93;;;;;;;25.57;55.67;100593.00;8369040;28;20047;-60
2023/09/15 13:36:26;;;;;;;3.50;1.10;;;;;;;25.42;55.29;100587.03;8365600;28;20097;-61
2023/09/15 13:40:27;;;;;;;1.83;1.15;;;;;;;25.51;55.86;100584.75;8369694;28;20048;-61
2023/09/15 13:44:27;;;;;;;2.65;1.20;;;;;;;25.43;56.63;100583.19;8369127;28;20105;-60
2023/09/15 13:48:28;;;;;;;2.33;1.00;;;;;;;25.54;56.35;100578.75;8369536;28;20175;-60
2023/09/15 13:52:29;;;;;;;2.30;1.30;;;;;;;25.33;55.89;100579.28;8353001;28;20033;-58
2023/09/15 13:56:30;;;;;;;1.85;1.10;;;;;;;25.33;55.53;100577.38;8354213;28;20041;-58
2023/09/15 14:00:30;;;;;;;2.05;1.23;;;;;;;25.15;55.50;100566.31;8345247;28;20116;-58
2023/09/15 14:04:31;;;;;;;3.08;0.98;;;;;;;25.04;55.22;100567.13;8352042;28;20067;-65
2023/09/15 14:08:31;;;;;;;4.40;1.40;;;;;;;25.08;56.57;100551.72;8277801;23;20043;-90
2023/09/15 14:12:32;;;;;;;4.00;1.23;;;;;;;25.22;57.13;100558.75;8215742;28;20030;-91
2023/09/15 14:16:32;;;;;;;1.92;1.13;;;;;;;25.24;57.02;100555.75;8224231;28;20046;-90
2023/09/15 14:20:33;;;;;;;2.90;1.25;;;;;;;25.51;56.46;100557.94;8232972;28;20075;-90
2023/09/15 14:24:35;;;;;;;4.28;1.30;;;;;;;25.37;55.41;100537.06;8252421;28;20479;-90
2023/09/15 14:28:36;;;;;;;2.67;1.45;;;;;;;25.46;55.13;100559.72;8255463;28;20112;-90
2023/09/15 14:32:36;;;;;;;2.35;1.38;;;;;;;25.57;56.00;100545.91;8250763;28;20118;-90
2023/09/15 14:36:37;;;;;;;4.15;1.38;;;;;;;25.48;54.88;100541.78;8252293;28;20042;-90
2023/09/15 14:40:38;;;;;;;3.35;1.48;;;;;;;25.42;56.69;100519.72;8258466;28;20050;-90
2023/09/15 14:44:39;;;;;;;2.90;1.30;;;;;;;25.38;56.14;100537.91;8242400;28;20077;-90
2023/09/15 14:48:48;;;;;;;3.20;1.40;;;;;;;25.37;57.10;100527.91;8258149;28;20034;-90
2023/09/15 14:52:49;;;;;;;2.83;1.38;;;;;;;25.17;57.88;100500.50;8255310;28;20089;-90
2023/09/15 14:56:52;;;;;;;2.55;1.35;;;;;;;25.24;56.90;100508.69;8235992;28;20058;-89
2023/09/15 15:00:53;;;;;;;1.98;1.30;;;;;;;25.30;57.63;100521.59;8252590;28;20046;-88
2023/09/15 15:04:54;;;;;;;2.78;1.50;;;;;;;25.12;57.04;100500.34;8265715;28;20131;-88
2023/09/15 15:08:55;;;;;;;5.05;1.30;;;;;;;24.98;57.23;100490.56;8251098;28;20046;-87
2023/09/15 15:12:56;;;;;;;2.03;1.25;;;;;;;24.96;57.15;100487.19;8252696;28;20190;-88
2023/09/15 15:16:57;;;;;;;5.45;1.35;;;;;;;25.03;57.61;100493.47;8266192;28;20084;-87
2023/09/15 15:20:57;;;;;;;3.85;2.00;;;;;;;25.07;57.23;100483.63;8228703;28;20039;-87
2023/09/15 15:24:58;;;;;;;4.18;1.35;;;;;;;25.11;57.32;100467.38;8270084;28;20053;-88
2023/09/15 15:28:59;;;;;;;3.47;1.30;;;;;;;25.18;57.37;100468.97;8233090;28;20034;-87
2023/09/15 15:32:59;;;;;;;2.80;1.35;;;;;;;25.16;58.36;100479.44;8239771;28;20034;-87
2023/09/15 15:37:00;;;;;;;2.83;1.55;;;;;;;25.16;58.11;100482.22;8235250;28;20029;-87
2023/09/15 15:41:05;;;;;;;2.67;1.20;;;;;;;24.93;57.49;100454.47;8250809;28;20493;-88
2023/09/15 15:45:06;;;;;;;3.53;1.50;;;;;;;25.05;57.67;100447.03;8247540;28;20041;-87
2023/09/15 15:49:06;;;;;;;4.28;1.63;;;;;;;25.11;58.44;100462.69;8236451;28;20042;-88
2023/09/15 15:53:10;;;;;;;5.82;1.52;;;;;;;25.12;58.86;100469.91;8206416;28;20050;-87
2023/09/15 15:57:11;;;;;;;4.00;1.63;;;;;;;24.96;58.62;100448.47;8218121;28;20339;-87
2023/09/15 16:01:11;;;;;;;4.35;1.63;;;;;;;24.88;59.47;100468.13;8222419;28;20678;-87
2023/09/15 16:05:12;;;;;;;3.97;1.42;;;;;;;24.90;58.62;100463.22;8236344;28;20050;-88
2023/09/15 16:09:13;;;;;;;1.98;1.50;;;;;;;24.89;59.53;100464.31;8224003;28;20081;-88
2023/09/15 16:13:13;;;;;;;2.50;1.30;;;;;;;24.96;59.27;100467.81;8206958;28;20072;-88
2023/09/15 16:17:14;;;;;;;1.73;1.40;;;;;;;24.94;59.09;100461.66;8200347;28;20492;-88
2023/09/15 16:21:14;;;;;;;2.00;1.38;;;;;;;24.85;58.86;100447.34;8211546;28;20077;-88
2023/09/15 16:25:16;;;;;;;3.47;1.63;;;;;;;24.82;59.44;100469.06;8223794;28;20033;-87
2023/09/15 16:29:17;;;;;;;5.00;1.42;;;;;;;24.65;60.38;100452.31;8234558;28;20443;-87
2023/09/15 16:33:17;;;;;;;3.25;1.40;;;;;;;24.57;60.93;100465.56;8252235;28;20038;-88
2023/09/15 16:37:18;;;;;;;3.58;1.45;;;;;;;24.45;61.88;100456.34;8272090;28;20042;-87
2023/09/15 16:41:18;;;;;;;4.32;1.67;;;;;;;24.43;61.94;100458.53;8272417;28;20105;-87
2023/09/15 16:45:19;;;;;;;4.78;1.60;;;;;;;24.25;62.61;100439.19;8272156;28;20046;-86
2023/09/15 16:49:19;;;;;;;3.90;1.38;;;;;;;24.23;63.23;100457.91;8256797;28;20301;-87
2023/09/15 16:53:20;;;;;;;2.50;1.50;;;;;;;24.07;63.67;100458.53;8274626;28;20046;-87
2023/09/15 16:57:20;;;;;;;4.07;2.00;;;;;;;24.00;64.49;100452.25;8236576;28;20046;-87
2023/09/15 17:01:21;;;;;;;4.35;1.92;;;;;;;23.93;64.78;100456.94;8233544;28;20513;-86
2023/09/15 17:05:22;;;;;;;6.38;1.77;;;;;;;23.72;65.17;100438.88;8258826;28;20786;-87
2023/09/15 17:09:23;;;;;;;3.88;1.25;;;;;;;23.61;66.26;100449.84;8239643;28;20046;-87
2023/09/15 17:13:23;;;;;;;5.07;1.45;;;;;;;23.48;66.34;100441.69;8222194;28;20455;-87
2023/09/15 17:17:24;;;;;;;4.47;1.40;;;;;;;23.43;66.80;100438.75;8223624;28;20043;-87
2023/09/15 17:21:24;;;;;;;4.57;1.73;;;;;;;23.45;67.37;100447.66;8266380;28;20046;-87
2023/09/15 17:25:25;;;;;;;2.20;1.30;;;;;;;23.26;67.88;100432.13;8282620;28;20058;-87
2023/09/15 17:29:26;;;;;;;4.25;1.40;;;;;;;23.27;68.37;100462.25;8234554;28;20093;-85
2023/09/15 17:33:30;;;;;;;3.10;1.45;;;;;;;23.15;68.18;100459.28;8271484;28;20045;-86
2023/09/15 17:37:33;;;;;;;3.28;1.40;;;;;;;23.02;68.76;100458.53;8266975;28;20558;-90
2023/09/15 17:41:34;;;;;;;4.28;1.40;;;;;;;22.86;69.93;100451.66;8250272;28;20038;-90
2023/09/15 17:45:34;;;;;;;2.88;1.80;;;;;;;22.71;69.71;100450.25;8273066;28;20124;-88
2023/09/15 17:49:39;;;;;;;6.45;1.50;;;;;;;22.64;70.55;100444.81;8252245;28;20081;-88
2023/09/15 17:53:40;;;;;;;3.05;1.65;;;;;;;22.43;70.49;100431.31;8263911;28;20029;-88
2023/09/15 17:57:44;;;;;;;4.05;1.52;;;;;;;22.52;71.12;100460.34;8262314;28;20084;-87
2023/09/15 18:01:45;;;;;;;3.65;1.67;;;;;;;22.40;72.30;100459.28;8253515;28;20041;-87
2023/09/15 18:05:45;;;;;;;2.28;1.58;;;;;;;22.20;73.59;100464.00;8288163;28;20038;-86
2023/09/15 18:09:50;;;;;;;2.88;2.10;;;;;;;22.39;72.36;100474.16;8245932;28;20049;-87
2023/09/15 18:13:52;;;;;;;4.00;1.98;;;;;;;21.91;75.52;100456.28;8255867;28;20034;-87
2023/09/15 18:17:52;;;;;;;8.10;1.73;;;;;;;21.95;75.23;100460.28;8206584;28;20074;-86
2023/09/15 18:21:55;;;;;;;2.83;1.88;;;;;;;21.60;76.81;100450.59;8237741;28;20496;-86
2023/09/15 18:25:55;;;;;;;4.18;1.88;;;;;;;21.31;77.43;100434.50;8214245;28;20043;-88
2023/09/15 18:29:58;;;;;;;3.28;1.70;;;;;;;21.53;77.97;100470.91;8238465;28;20047;-87
2023/09/15 18:33:59;;;;;;;5.75;2.50;;;;;;;21.19;79.32;100447.19;8208837;28;20133;-86
2023/09/15 18:38:00;;;;;;;2.83;2.03;;;;;;;21.17;81.22;100465.81;8209746;28;20084;-87